Terminal Aerodrome Forecast
Issued by NWS

Home | Current Version | Previous Version | Text Only | Print | Product List | Glossary On
Versions: 1 2 3 4 5 6 7 8 9 10 11 12 13 14
000
FTUS42 KMLB 031738
TAFFPR
TAF
KFPR 031738Z 0318/0418 12009KT P6SM VCTS SCT035CB
     FM032100 12010KT P6SM SCT030 BKN250
     FM040200 14003KT P6SM FEW250
     FM041400 15006KT P6SM SCT025=

USA.gov is the U.S. government's official web portal to all federal, state and local government web resources and services.